createdAt,value
2017-04-07T00:00:37.093Z,1001.47
2017-04-07T00:01:47.104Z,1001.52
2017-04-07T00:02:57.456Z,1001.52
2017-04-07T00:04:07.483Z,1001.58
2017-04-07T00:05:17.848Z,1001.52
2017-04-07T00:06:27.890Z,1001.51
2017-04-07T00:07:38.229Z,1001.57
2017-04-07T00:08:48.257Z,1001.49
2017-04-07T00:09:57.980Z,1001.44
2017-04-07T00:11:08.338Z,1001.45
2017-04-07T00:12:18.356Z,1001.45
2017-04-07T00:13:28.689Z,1001.45
2017-04-07T00:14:39.264Z,1001.47
2017-04-07T00:15:49.595Z,1001.42
2017-04-07T00:16:59.929Z,1001.44
2017-04-07T00:18:09.960Z,1001.39
2017-04-07T00:19:20.297Z,1001.43
2017-04-07T00:20:30.030Z,1001.44
2017-04-07T00:21:40.382Z,1001.44
2017-04-07T00:22:50.728Z,1001.43
2017-04-07T00:24:01.051Z,1001.39
2017-04-07T00:25:11.071Z,1001.39
2017-04-07T00:26:21.415Z,1001.42
2017-04-07T00:27:31.439Z,1001.41
2017-04-07T00:28:41.777Z,1001.45
2017-04-07T00:29:52.119Z,1001.44
2017-04-07T00:31:02.442Z,1001.46
2017-04-07T00:32:12.452Z,1001.4
2017-04-07T00:33:22.780Z,1001.4
2017-04-07T00:34:32.786Z,1001.41
2017-04-07T00:35:42.818Z,1001.41
2017-04-07T00:36:53.163Z,1001.39
2017-04-07T00:38:03.180Z,1001.37
2017-04-07T00:39:13.538Z,1001.41
2017-04-07T00:40:23.893Z,1001.38
2017-04-07T00:41:34.228Z,1001.4
2017-04-07T00:42:44.572Z,1001.51
2017-04-07T00:43:54.598Z,1001.36
2017-04-07T00:45:04.942Z,1001.51
2017-04-07T00:46:15.289Z,1001.42
2017-04-07T00:47:25.614Z,1001.51
2017-04-07T00:48:35.006Z,1001.46
2017-04-07T00:49:45.344Z,1001.5
2017-04-07T00:50:55.673Z,1001.54
2017-04-07T00:52:06.029Z,1001.56
2017-04-07T00:53:16.398Z,1001.54
2017-04-07T00:54:26.738Z,1001.52
2017-04-07T00:55:37.080Z,1001.48
2017-04-07T00:56:47.125Z,1001.5
2017-04-07T00:57:57.469Z,1001.46
2017-04-07T00:59:07.788Z,1001.43
2017-04-07T01:00:17.808Z,1001.45
2017-04-07T01:01:27.834Z,1001.44
2017-04-07T01:02:38.162Z,1001.44
2017-04-07T01:03:48.503Z,1001.4
2017-04-07T01:04:58.538Z,1001.46
2017-04-07T01:06:08.887Z,1001.42
2017-04-07T01:07:18.913Z,1001.45
2017-04-07T01:08:29.259Z,1001.49
2017-04-07T01:09:39.591Z,1001.45
2017-04-07T01:10:49.933Z,1001.42
2017-04-07T01:12:00.272Z,1001.42
2017-04-07T01:13:10.291Z,1001.4
2017-04-07T01:14:20.013Z,1001.35
2017-04-07T01:15:30.023Z,1001.4
2017-04-07T01:16:40.423Z,1001.4
2017-04-07T01:17:50.803Z,1001.36
2017-04-07T01:19:01.145Z,1001.33
2017-04-07T01:20:11.526Z,1001.36
2017-04-07T01:21:21.859Z,1001.34
2017-04-07T01:22:32.177Z,1001.38
2017-04-07T01:23:42.536Z,1001.34
2017-04-07T01:24:52.889Z,1001.33
2017-04-07T01:26:03.227Z,1001.35
2017-04-07T01:27:13.560Z,1001.33
2017-04-07T01:28:23.890Z,1001.36
2017-04-07T01:29:34.241Z,1001.37
2017-04-07T01:30:44.578Z,1001.4
2017-04-07T01:31:54.905Z,1001.36
2017-04-07T01:33:05.230Z,1001.36
2017-04-07T01:34:15.559Z,1001.3
2017-04-07T01:35:25.931Z,1001.34
2017-04-07T01:36:36.262Z,1001.28
2017-04-07T01:37:46.632Z,1001.29
2017-04-07T01:38:56.654Z,1001.33
2017-04-07T01:40:06.991Z,1001.3
2017-04-07T01:41:17.043Z,1001.31
2017-04-07T01:42:27.090Z,1001.25
2017-04-07T01:43:37.126Z,1001.25
2017-04-07T01:44:46.835Z,1001.28
2017-04-07T01:45:57.166Z,1001.27
2017-04-07T01:47:07.507Z,1001.28
2017-04-07T01:48:17.522Z,1001.24
2017-04-07T01:49:27.534Z,1001.27
2017-04-07T01:50:37.542Z,1001.33
2017-04-07T01:51:47.873Z,1001.28
2017-04-07T01:52:58.200Z,1001.27
2017-04-07T01:54:08.597Z,1001.21
2017-04-07T01:55:18.615Z,1001.27
2017-04-07T01:56:28.645Z,1001.26
2017-04-07T01:57:38.980Z,1001.26
2017-04-07T01:58:49.319Z,1001.37
2017-04-07T01:59:59.656Z,1001.33
2017-04-07T02:01:09.681Z,1001.31
2017-04-07T02:02:20.019Z,1001.29
2017-04-07T02:03:30.044Z,1001.27
2017-04-07T02:04:40.376Z,1001.46
2017-04-07T02:05:50.699Z,1001.3
2017-04-07T02:07:01.020Z,1001.32
2017-04-07T02:08:11.367Z,1001.32
2017-04-07T02:09:21.379Z,1001.28
2017-04-07T02:10:31.770Z,1001.24
2017-04-07T02:11:42.116Z,1001.27
2017-04-07T02:12:52.452Z,1001.35
2017-04-07T02:14:02.175Z,1001.33
2017-04-07T02:15:12.493Z,1001.28
2017-04-07T02:16:22.544Z,1001.27
2017-04-07T02:17:32.866Z,1001.23
2017-04-07T02:18:42.879Z,1001.3
2017-04-07T02:19:53.225Z,1001.27
2017-04-07T02:21:03.261Z,1001.21
2017-04-07T02:22:13.293Z,1001.26
2017-04-07T02:23:23.618Z,1001.35
2017-04-07T02:24:33.326Z,1001.36
2017-04-07T02:25:43.670Z,1001.29
2017-04-07T02:26:54.009Z,1001.26
2017-04-07T02:28:04.363Z,1001.31
2017-04-07T02:29:14.395Z,1001.27
2017-04-07T02:30:24.721Z,1001.31
2017-04-07T02:31:35.066Z,1001.25
2017-04-07T02:32:45.089Z,1001.23
2017-04-07T02:33:55.432Z,1001.21
2017-04-07T02:35:05.171Z,1001.28
2017-04-07T02:36:15.507Z,1001.21
2017-04-07T02:37:25.865Z,1001.26
2017-04-07T02:38:35.879Z,1001.25
2017-04-07T02:39:45.908Z,1001.18
2017-04-07T02:40:55.944Z,1001.21
2017-04-07T02:42:06.276Z,1001.17
2017-04-07T02:43:16.593Z,1001.14
2017-04-07T02:44:26.951Z,1001.16
2017-04-07T02:45:37.312Z,1001.14
2017-04-07T02:46:47.664Z,1001.16
2017-04-07T02:47:57.991Z,1001.1
2017-04-07T02:49:08.341Z,1001.14
2017-04-07T02:50:18.363Z,1001.15
2017-04-07T02:51:28.980Z,1001.18
2017-04-07T02:52:38.714Z,1001.17
2017-04-07T02:53:49.066Z,1001.17
2017-04-07T02:54:59.401Z,1001.18
2017-04-07T02:56:09.103Z,1001.22
2017-04-07T02:57:19.443Z,1001.22
2017-04-07T02:58:29.789Z,1001.23
2017-04-07T02:59:40.120Z,1001.24
2017-04-07T03:00:50.459Z,1001.26
2017-04-07T03:02:00.805Z,1001.2
2017-04-07T03:32:55.235Z,1000.65
2017-04-07T03:34:05.289Z,1000.72
2017-04-07T03:35:15.628Z,1000.67
2017-04-07T03:36:25.657Z,1000.65
2017-04-07T03:37:35.985Z,1000.72
2017-04-07T03:38:46.317Z,1000.65
2017-04-07T03:39:56.655Z,1000.61
2017-04-07T03:41:07.001Z,1000.62
2017-04-07T03:42:17.026Z,1000.63
2017-04-07T03:43:26.732Z,1000.64
2017-04-07T03:44:36.753Z,1000.58
2017-04-07T03:45:46.800Z,1000.67
2017-04-07T03:46:57.137Z,1000.69
2017-04-07T03:48:07.468Z,1000.68
2017-04-07T03:49:17.501Z,1000.66
2017-04-07T03:50:27.528Z,1000.66
2017-04-07T03:51:37.548Z,1000.6
2017-04-07T03:52:47.863Z,1000.6
2017-04-07T03:53:58.198Z,1000.59
2017-04-07T03:55:08.521Z,1000.56
2017-04-07T03:56:18.866Z,1000.54
2017-04-07T03:57:28.906Z,1000.52
2017-04-07T03:58:38.952Z,1000.56
2017-04-07T03:59:49.280Z,1000.48
2017-04-07T04:00:59.643Z,1000.43
2017-04-07T04:02:09.339Z,1000.43
2017-04-07T04:03:19.360Z,1000.44
2017-04-07T04:04:29.702Z,1000.43
2017-04-07T04:05:39.080Z,1000.43
2017-04-07T04:06:49.110Z,1000.45
2017-04-07T04:07:59.440Z,1000.39
2017-04-07T04:09:09.463Z,1000.36
2017-04-07T04:10:19.787Z,1000.4
2017-04-07T04:11:30.125Z,1000.41
2017-04-07T04:12:40.465Z,1000.38
2017-04-07T04:13:50.806Z,1000.34
2017-04-07T04:15:01.192Z,1000.31
2017-04-07T04:16:11.539Z,1000.32
2017-04-07T04:17:21.553Z,1000.32
2017-04-07T04:18:31.893Z,1000.3
2017-04-07T04:19:42.223Z,1000.34
2017-04-07T04:20:52.569Z,1000.27
2017-04-07T04:22:02.591Z,1000.29
2017-04-07T04:23:12.970Z,1000.27
2017-04-07T04:24:23.539Z,1000.3
2017-04-07T04:25:33.890Z,1000.28
2017-04-07T04:26:44.230Z,1000.26
2017-04-07T04:27:54.573Z,1000.25
2017-04-07T04:29:04.908Z,1000.24
2017-04-07T04:30:15.256Z,1000.3
2017-04-07T04:31:25.583Z,1000.26
2017-04-07T04:32:35.600Z,1000.23
2017-04-07T04:33:45.626Z,1000.26
2017-04-07T04:34:55.647Z,1000.26
2017-04-07T04:36:05.681Z,1000.32
2017-04-07T04:37:16.022Z,1000.28
2017-04-07T04:38:26.029Z,1000.24
2017-04-07T04:39:36.348Z,1000.23
2017-04-07T04:40:46.675Z,1000.22
2017-04-07T04:41:56.707Z,1000.25
2017-04-07T04:43:07.054Z,1000.2
2017-04-07T04:44:17.395Z,1000.22
2017-04-07T04:45:27.760Z,1000.21
2017-04-07T04:46:37.777Z,1000.23
2017-04-07T04:47:48.112Z,1000.17
2017-04-07T04:48:57.812Z,1000.28
2017-04-07T04:50:08.154Z,1000.17
2017-04-07T04:51:18.511Z,1000.27
2017-04-07T04:52:28.887Z,1000.25
2017-04-07T04:53:38.899Z,1000.17
2017-04-07T04:54:49.232Z,1000.17
2017-04-07T04:55:59.267Z,1000.2
2017-04-07T04:57:09.307Z,1000.15
2017-04-07T04:58:19.341Z,1000.11
2017-04-07T04:59:29.712Z,1000.18
2017-04-07T05:00:40.036Z,1000.12
2017-04-07T05:01:49.434Z,1000.22
2017-04-07T05:02:59.760Z,1000.23
2017-04-07T05:04:10.083Z,1000.15
2017-04-07T05:05:20.423Z,1000.12
2017-04-07T05:06:30.450Z,1000.23
2017-04-07T05:07:40.468Z,1000.25
2017-04-07T05:08:50.493Z,1000.21
2017-04-07T05:10:00.845Z,1000.16
2017-04-07T05:11:10.861Z,1000.28
2017-04-07T05:12:21.181Z,1000.14
2017-04-07T05:13:31.530Z,1000.29
2017-04-07T05:14:41.901Z,1000.17
2017-04-07T05:15:51.608Z,1000.21
2017-04-07T05:17:01.991Z,1000.18
2017-04-07T05:18:12.332Z,1000.15
2017-04-07T05:19:22.671Z,1000.06
2017-04-07T05:20:32.684Z,1000.23
2017-04-07T05:21:43.019Z,1000.22
2017-04-07T05:22:53.347Z,1000.28
2017-04-07T05:24:03.698Z,1000.2
2017-04-07T05:25:14.021Z,1000.3
2017-04-07T05:26:24.341Z,1000.3
2017-04-07T05:27:34.679Z,1000.25
2017-04-07T05:28:45.045Z,1000.25
2017-04-07T05:29:55.073Z,1000.28
2017-04-07T05:31:05.412Z,1000.29
2017-04-07T05:32:15.752Z,1000.25
2017-04-07T05:33:26.084Z,1000.27
2017-04-07T05:34:36.101Z,1000.31
2017-04-07T05:35:46.123Z,1000.34
2017-04-07T05:36:55.835Z,1000.24
2017-04-07T05:38:05.861Z,1000.25
2017-04-07T05:39:16.195Z,1000.26
2017-04-07T05:40:26.533Z,1000.21
2017-04-07T05:41:36.237Z,1000.26
2017-04-07T05:42:46.582Z,1000.24
2017-04-07T05:43:56.906Z,1000.27
2017-04-07T05:45:07.260Z,1000.22
2017-04-07T05:46:17.584Z,1000.16
2017-04-07T05:47:27.617Z,1000.24
2017-04-07T05:48:37.950Z,1000.2
2017-04-07T05:49:48.274Z,1000.24
2017-04-07T05:50:58.626Z,1000.17
2017-04-07T05:52:08.971Z,1000.18
2017-04-07T05:53:18.378Z,1000.17
2017-04-07T05:54:28.081Z,1000.16
2017-04-07T05:55:38.103Z,1000.11
2017-04-07T05:56:48.445Z,1000.22
2017-04-07T05:57:58.470Z,1000.15
2017-04-07T05:59:08.824Z,1000.21
2017-04-07T06:00:18.534Z,1000.2
2017-04-07T06:01:28.561Z,1000.19
2017-04-07T06:02:38.559Z,1000.13
2017-04-07T06:03:48.570Z,1000.2
2017-04-07T06:04:58.585Z,1000.2
2017-04-07T06:06:08.603Z,1000.16
2017-04-07T06:07:18.319Z,1000.16
2017-04-07T06:08:28.647Z,1000.12
2017-04-07T06:09:38.991Z,1000.23
2017-04-07T06:10:49.313Z,1000.18
2017-04-07T06:11:59.906Z,1000.14
2017-04-07T06:13:09.941Z,1000.19
2017-04-07T06:14:20.272Z,1000.13
2017-04-07T06:15:30.613Z,1000.15
2017-04-07T06:16:40.949Z,1000.06
2017-04-07T06:17:51.319Z,1000.07
2017-04-07T06:19:01.661Z,1000.14
2017-04-07T06:20:11.692Z,1000.03
2017-04-07T06:21:21.709Z,1000.01
2017-04-07T06:22:31.729Z,1000.05
2017-04-07T06:23:42.039Z,1000.1
2017-04-07T06:24:52.065Z,1000.19
2017-04-07T06:26:02.401Z,1000.08
2017-04-07T06:27:12.753Z,1000.09
2017-04-07T06:28:23.077Z,1000.04
2017-04-07T06:29:33.087Z,1000.04
2017-04-07T06:30:43.409Z,1000.02
2017-04-07T06:31:53.116Z,999.97
2017-04-07T06:33:03.471Z,1000.04
2017-04-07T06:34:13.805Z,999.97
2017-04-07T06:35:23.827Z,1000
2017-04-07T06:36:33.846Z,1000.02
2017-04-07T06:37:44.188Z,1000.05
2017-04-07T06:38:54.521Z,999.95
2017-04-07T06:40:04.539Z,1000.02
2017-04-07T06:41:14.871Z,999.97
2017-04-07T06:42:24.898Z,999.98
2017-04-07T06:43:34.616Z,999.98
2017-04-07T06:44:44.629Z,999.99
2017-04-07T06:45:54.991Z,999.97
2017-04-07T06:47:05.332Z,999.98
2017-04-07T06:48:15.367Z,999.93
2017-04-07T06:49:25.711Z,999.97
2017-04-07T06:50:36.062Z,999.92
2017-04-07T06:51:46.071Z,999.91
2017-04-07T06:52:56.413Z,1000
2017-04-07T06:54:06.775Z,999.96
2017-04-07T06:55:17.099Z,999.95
2017-04-07T06:56:27.109Z,999.96
2017-04-07T06:57:36.813Z,999.95
2017-04-07T06:58:46.852Z,999.92
2017-04-07T06:59:56.571Z,999.9
2017-04-07T07:01:06.919Z,999.83
2017-04-07T07:02:17.252Z,999.91
2017-04-07T07:03:27.584Z,999.88
2017-04-07T07:04:37.921Z,999.9
2017-04-07T07:05:47.950Z,999.92
2017-04-07T07:06:58.291Z,999.93
2017-04-07T07:08:08.625Z,999.87
2017-04-07T07:09:18.955Z,999.84
2017-04-07T07:10:29.272Z,999.85
2017-04-07T07:11:39.609Z,999.85
2017-04-07T07:12:49.954Z,999.73
2017-04-07T07:14:00.303Z,999.75
2017-04-07T07:15:10.655Z,999.88
2017-04-07T07:16:21.035Z,999.81
2017-04-07T07:17:31.047Z,999.84
2017-04-07T07:18:41.379Z,999.79
2017-04-07T07:19:51.716Z,999.81
2017-04-07T07:21:02.050Z,999.8
2017-04-07T07:22:12.399Z,999.76
2017-04-07T07:23:22.426Z,999.77
2017-04-07T07:24:32.482Z,999.85
2017-04-07T07:25:42.804Z,999.91
2017-04-07T07:26:53.131Z,999.9
2017-04-07T07:28:03.480Z,999.96
2017-04-07T07:29:13.830Z,999.87
2017-04-07T07:30:24.158Z,999.85
2017-04-07T07:31:34.188Z,999.77
2017-04-07T07:32:44.531Z,999.7
2017-04-07T07:33:54.228Z,999.82
2017-04-07T07:35:04.261Z,999.75
2017-04-07T07:36:14.595Z,999.86
2017-04-07T07:37:24.923Z,999.75
2017-04-07T07:38:34.965Z,999.78
2017-04-07T07:39:45.311Z,999.81
2017-04-07T07:40:55.652Z,999.79
2017-04-07T07:42:06.017Z,999.75
2017-04-07T07:43:16.058Z,999.75
2017-04-07T07:44:26.394Z,999.72
2017-04-07T07:45:36.764Z,999.79
2017-04-07T07:46:47.097Z,999.72
2017-04-07T07:47:57.419Z,999.78
2017-04-07T07:49:07.753Z,999.6
2017-04-07T07:50:18.076Z,999.72
2017-04-07T07:51:28.423Z,999.75
2017-04-07T07:52:38.458Z,999.73
2017-04-07T07:53:48.791Z,999.73
2017-04-07T07:54:58.808Z,999.74
2017-04-07T07:56:09.151Z,999.72
2017-04-07T07:57:19.486Z,999.78
2017-04-07T07:58:29.498Z,999.77
2017-04-07T07:59:39.244Z,999.78
2017-04-07T08:00:49.580Z,999.86
2017-04-07T08:01:59.955Z,999.83
2017-04-07T08:03:10.333Z,999.78
2017-04-07T08:04:20.376Z,999.73
2017-04-07T08:05:30.959Z,999.87
2017-04-07T08:06:41.304Z,999.75
2017-04-07T08:07:51.912Z,999.81
2017-04-07T08:09:02.253Z,999.85
2017-04-07T08:10:12.295Z,999.79
2017-04-07T08:11:22.334Z,999.87
2017-04-07T08:12:32.712Z,999.84
2017-04-07T08:13:42.425Z,999.8
2017-04-07T08:14:52.802Z,999.73
2017-04-07T08:16:03.164Z,999.78
2017-04-07T08:17:13.517Z,999.79
2017-04-07T08:18:23.853Z,999.72
2017-04-07T08:19:34.203Z,999.82
2017-04-07T08:20:44.557Z,999.8
2017-04-07T08:21:54.280Z,999.75
2017-04-07T08:23:04.630Z,999.89
2017-04-07T08:24:14.669Z,999.8
2017-04-07T08:25:24.694Z,999.79
2017-04-07T08:26:34.736Z,999.85
2017-04-07T08:27:44.782Z,999.85
2017-04-07T08:28:54.849Z,999.86
2017-04-07T08:30:05.203Z,999.82
2017-04-07T08:31:15.568Z,999.89
2017-04-07T08:32:25.977Z,999.86
2017-04-07T08:33:36.058Z,999.9
2017-04-07T08:34:46.186Z,999.83
2017-04-07T08:35:56.583Z,999.78
2017-04-07T08:37:07.047Z,999.84
2017-04-07T08:38:17.161Z,999.69
2017-04-07T08:39:27.318Z,999.75
2017-04-07T08:40:37.657Z,999.77
2017-04-07T08:41:48.003Z,999.79
2017-04-07T08:42:58.037Z,999.78
2017-04-07T08:44:08.078Z,999.8
2017-04-07T08:45:18.413Z,999.81
2017-04-07T08:46:28.989Z,999.78
2017-04-07T08:47:39.013Z,999.82
2017-04-07T08:48:49.358Z,999.8
2017-04-07T08:49:59.725Z,999.81
2017-04-07T08:51:09.787Z,999.83
2017-04-07T08:52:20.122Z,999.8
2017-04-07T08:53:30.485Z,999.84
2017-04-07T08:54:40.191Z,999.91
2017-04-07T08:55:50.250Z,999.82
2017-04-07T08:57:00.594Z,999.86
2017-04-07T08:58:10.966Z,999.89
2017-04-07T08:59:21.323Z,999.85
2017-04-07T09:00:31.353Z,999.83
2017-04-07T09:01:41.715Z,999.82
2017-04-07T09:02:52.073Z,999.9
2017-04-07T09:04:02.433Z,999.82
2017-04-07T09:05:12.481Z,999.85
2017-04-07T09:06:22.217Z,999.81
2017-04-07T09:07:32.589Z,999.84
2017-04-07T09:08:42.942Z,999.89
2017-04-07T09:09:53.303Z,999.79
2017-04-07T09:11:03.338Z,999.8
2017-04-07T09:12:13.427Z,999.81
2017-04-07T09:13:23.478Z,999.81
2017-04-07T09:14:33.502Z,999.72
2017-04-07T09:15:43.863Z,999.78
2017-04-07T09:16:54.199Z,999.88
2017-04-07T09:18:04.243Z,999.78
2017-04-07T09:19:13.956Z,999.77
2017-04-07T09:20:24.301Z,999.74
2017-04-07T09:21:34.650Z,999.75
2017-04-07T09:22:44.706Z,999.78
2017-04-07T09:23:55.071Z,999.75
2017-04-07T09:25:05.438Z,999.76
2017-04-07T09:26:14.870Z,999.73
2017-04-07T09:27:24.903Z,999.73
2017-04-07T09:28:35.267Z,999.76
2017-04-07T09:29:45.607Z,999.75
2017-04-07T09:30:55.977Z,999.67
2017-04-07T09:32:06.265Z,999.75
2017-04-07T09:33:16.499Z,999.72
2017-04-07T09:34:26.547Z,999.76
2017-04-07T09:35:36.920Z,999.72
2017-04-07T09:36:46.992Z,999.73
2017-04-07T09:37:57.351Z,999.77
2017-04-07T09:39:07.709Z,999.79
2017-04-07T09:40:18.103Z,999.74
2017-04-07T09:41:28.463Z,999.77
2017-04-07T09:42:38.819Z,999.81
2017-04-07T09:43:49.187Z,999.77
2017-04-07T09:44:59.693Z,999.75
2017-04-07T09:46:10.071Z,999.8
2017-04-07T09:47:20.688Z,999.78
2017-04-07T09:48:31.314Z,999.75
2017-04-07T09:49:40.993Z,999.79
2017-04-07T09:50:51.052Z,999.82
2017-04-07T09:52:01.408Z,999.79
2017-04-07T09:53:11.790Z,999.83
2017-04-07T09:54:22.153Z,999.85
2017-04-07T09:55:32.523Z,999.86
2017-04-07T09:56:42.553Z,999.85
2017-04-07T09:57:52.895Z,999.81
2017-04-07T09:59:03.253Z,999.78
2017-04-07T10:00:13.611Z,999.82
2017-04-07T10:01:23.972Z,999.88
2017-04-07T10:02:34.328Z,999.89
2017-04-07T10:03:44.079Z,999.86
2017-04-07T10:04:54.467Z,999.8
2017-04-07T10:06:04.816Z,999.8
2017-04-07T10:07:15.183Z,999.83
2017-04-07T10:08:25.539Z,999.82
2017-04-07T10:09:35.595Z,999.8
2017-04-07T10:10:45.946Z,999.83
2017-04-07T10:11:56.307Z,999.89
2017-04-07T10:13:06.711Z,999.93
2017-04-07T10:14:16.772Z,999.85
2017-04-07T10:15:27.108Z,999.85
2017-04-07T10:16:37.506Z,999.86
2017-04-07T10:17:47.897Z,999.93
2017-04-07T10:18:57.917Z,999.85
2017-04-07T10:20:07.953Z,999.9
2017-04-07T10:21:18.285Z,999.93
2017-04-07T10:22:28.628Z,999.95
2017-04-07T10:23:38.977Z,999.94
2017-04-07T10:24:49.009Z,999.98
2017-04-07T10:25:59.344Z,999.91
2017-04-07T10:27:09.714Z,999.95
2017-04-07T10:28:19.763Z,999.92
2017-04-07T10:29:29.799Z,999.97
2017-04-07T10:30:39.828Z,999.91
2017-04-07T10:31:50.215Z,999.95
2017-04-07T10:33:00.249Z,999.98
2017-04-07T10:34:10.608Z,999.93
2017-04-07T10:35:20.962Z,999.92
2017-04-07T10:36:31.325Z,999.95
2017-04-07T10:37:41.082Z,999.93
2017-04-07T10:38:51.454Z,999.97
2017-04-07T10:40:01.845Z,999.96
2017-04-07T10:41:12.217Z,999.92
2017-04-07T10:42:22.589Z,999.98
2017-04-07T10:43:32.615Z,999.91
2017-04-07T10:44:42.947Z,999.92
2017-04-07T10:45:53.281Z,999.92
2017-04-07T10:47:03.609Z,999.97
2017-04-07T10:48:13.958Z,999.96
2017-04-07T10:49:23.988Z,999.95
2017-04-07T10:50:34.329Z,999.94
2017-04-07T10:51:44.366Z,1000.03
2017-04-07T10:52:54.698Z,999.98
2017-04-07T10:54:05.041Z,1000.01
2017-04-07T10:55:15.371Z,1000.06
2017-04-07T10:56:25.725Z,999.98
2017-04-07T10:57:35.482Z,999.98
2017-04-07T10:58:45.827Z,999.98
2017-04-07T10:59:56.144Z,999.96
2017-04-07T11:01:06.177Z,999.97
2017-04-07T11:02:16.517Z,999.93
2017-04-07T11:03:26.860Z,999.97
2017-04-07T11:04:37.219Z,999.99
2017-04-07T11:05:47.285Z,1000
2017-04-07T11:06:57.330Z,999.98
2017-04-07T11:08:07.691Z,1000
2017-04-07T11:09:17.999Z,999.99
2017-04-07T11:10:28.330Z,999.99
2017-04-07T11:11:38.656Z,1000.01
2017-04-07T11:12:48.695Z,999.95
2017-04-07T11:13:59.035Z,999.99
2017-04-07T11:15:09.369Z,999.97
2017-04-07T11:16:19.698Z,1000.01
2017-04-07T11:17:30.015Z,1000.01
2017-04-07T11:18:40.056Z,1000.01
2017-04-07T11:19:50.394Z,999.98
2017-04-07T11:21:00.439Z,999.99
2017-04-07T11:22:10.769Z,999.92
2017-04-07T11:23:21.119Z,999.93
2017-04-07T11:24:31.135Z,1000
2017-04-07T11:25:41.164Z,999.92
2017-04-07T11:26:51.509Z,999.96
2017-04-07T11:28:01.517Z,999.89
2017-04-07T11:29:11.857Z,999.9
2017-04-07T11:30:22.202Z,999.87
2017-04-07T11:31:32.553Z,999.9
2017-04-07T11:32:42.574Z,999.9
2017-04-07T11:33:52.912Z,999.93
2017-04-07T11:35:03.260Z,999.87
2017-04-07T11:36:13.305Z,999.84
2017-04-07T11:37:23.651Z,999.9
2017-04-07T11:38:33.976Z,999.87
2017-04-07T11:39:44.304Z,999.85
2017-04-07T11:40:54.344Z,999.92
2017-04-07T11:42:04.687Z,999.82
2017-04-07T11:43:14.408Z,999.81
2017-04-07T11:44:24.990Z,999.88
2017-04-07T11:45:35.337Z,999.86
2017-04-07T11:46:45.382Z,999.88
2017-04-07T11:47:55.717Z,999.84
2017-04-07T11:49:05.742Z,999.91
2017-04-07T11:50:16.079Z,999.78
2017-04-07T11:51:26.129Z,999.8
2017-04-07T11:52:36.461Z,999.85
2017-04-07T11:53:46.484Z,999.85
2017-04-07T11:54:56.807Z,999.82
2017-04-07T11:56:07.148Z,999.79
2017-04-07T11:57:17.177Z,999.77
2017-04-07T11:58:26.899Z,999.7
2017-04-07T11:59:37.265Z,999.81
2017-04-07T12:00:46.665Z,999.75
2017-04-07T12:01:57.035Z,999.78
2017-04-07T12:03:07.058Z,999.72
2017-04-07T12:04:17.090Z,999.72
2017-04-07T12:05:27.107Z,999.74
2017-04-07T12:06:37.132Z,999.73
2017-04-07T12:07:47.484Z,999.66
2017-04-07T12:08:57.829Z,999.69
2017-04-07T12:10:07.537Z,999.66
2017-04-07T12:11:17.894Z,999.68
2017-04-07T12:12:28.476Z,999.7
2017-04-07T12:13:38.803Z,999.67
2017-04-07T12:14:48.215Z,999.71
2017-04-07T12:15:58.567Z,999.71
2017-04-07T12:17:08.599Z,999.76
2017-04-07T12:18:18.653Z,999.72
2017-04-07T12:19:28.982Z,999.72
2017-04-07T12:20:38.996Z,999.72
2017-04-07T12:21:49.026Z,999.74
2017-04-07T12:22:59.385Z,999.71
2017-04-07T12:24:09.420Z,999.68
2017-04-07T12:25:19.449Z,999.68
2017-04-07T12:26:29.809Z,999.66
2017-04-07T12:27:40.170Z,999.67
2017-04-07T12:28:50.536Z,999.68
2017-04-07T12:30:00.881Z,999.65
2017-04-07T12:31:10.894Z,999.62
2017-04-07T12:32:20.634Z,999.57
2017-04-07T12:33:30.688Z,999.61
2017-04-07T12:34:41.069Z,999.64
2017-04-07T12:35:51.100Z,999.64
2017-04-07T12:37:01.461Z,999.63
2017-04-07T12:38:11.812Z,999.59
2017-04-07T12:39:21.854Z,999.59
2017-04-07T12:40:32.204Z,999.57
2017-04-07T12:41:42.559Z,999.59
2017-04-07T12:42:52.917Z,999.56
2017-04-07T12:44:03.260Z,999.62
2017-04-07T12:45:13.594Z,999.59
2017-04-07T12:46:23.616Z,999.6
2017-04-07T12:47:33.984Z,999.61
2017-04-07T12:48:44.023Z,999.55
2017-04-07T12:49:54.366Z,999.53
2017-04-07T12:51:04.403Z,999.55
2017-04-07T12:52:13.807Z,999.57
2017-04-07T12:53:24.192Z,999.53
2017-04-07T12:54:34.634Z,999.51
2017-04-07T12:55:44.656Z,999.59
2017-04-07T12:56:54.370Z,999.51
2017-04-07T12:58:04.744Z,999.58
2017-04-07T12:59:15.095Z,999.53
2017-04-07T13:00:25.436Z,999.54
2017-04-07T13:01:35.777Z,999.54
2017-04-07T13:02:46.121Z,999.52
2017-04-07T13:03:56.148Z,999.53
2017-04-07T13:05:06.502Z,999.52
2017-04-07T13:06:16.850Z,999.54
2017-04-07T13:07:27.200Z,999.53
2017-04-07T13:08:37.531Z,999.45
2017-04-07T13:09:47.881Z,999.51
2017-04-07T13:10:58.230Z,999.53
2017-04-07T13:12:07.322Z,999.53
2017-04-07T13:13:17.661Z,999.44
2017-04-07T13:14:27.364Z,999.43
2017-04-07T13:15:37.074Z,999.48
2017-04-07T13:16:47.115Z,999.42
2017-04-07T13:17:57.456Z,999.48
2017-04-07T13:19:07.816Z,999.45
2017-04-07T13:20:18.161Z,999.43
2017-04-07T13:21:28.499Z,999.43
2017-04-07T13:22:38.854Z,999.42
2017-04-07T13:23:48.563Z,999.4
2017-04-07T13:24:58.584Z,999.42
2017-04-07T13:26:08.619Z,999.31
2017-04-07T13:27:18.960Z,999.38
2017-04-07T13:28:29.309Z,999.3
2017-04-07T13:29:39.687Z,999.29
2017-04-07T13:30:50.029Z,999.28
2017-04-07T13:32:00.374Z,999.23
2017-04-07T13:33:10.720Z,999.24
2017-04-07T13:34:20.800Z,999.31
2017-04-07T13:35:30.828Z,999.26
2017-04-07T13:36:40.530Z,999.25
2017-04-07T13:37:50.886Z,999.24
2017-04-07T13:39:01.240Z,999.25
2017-04-07T13:40:11.258Z,999.26
2017-04-07T13:41:21.597Z,999.27
2017-04-07T13:42:31.941Z,999.29
2017-04-07T13:43:41.983Z,999.2
2017-04-07T13:44:51.712Z,999.27
2017-04-07T13:46:02.065Z,999.2
2017-04-07T13:47:12.100Z,999.23
2017-04-07T13:48:22.446Z,999.21
2017-04-07T13:49:32.789Z,999.19
2017-04-07T13:50:43.115Z,999.15
2017-04-07T13:51:53.162Z,999.16
2017-04-07T13:53:02.886Z,999.15
2017-04-07T13:54:12.907Z,999.13
2017-04-07T13:55:23.256Z,999.1
2017-04-07T13:56:33.280Z,999.11
2017-04-07T13:57:43.616Z,999.09
2017-04-07T13:58:53.956Z,999.15
2017-04-07T14:00:04.291Z,999.1
2017-04-07T14:01:14.644Z,999.08
2017-04-07T14:02:24.356Z,999.04
2017-04-07T14:03:34.385Z,998.99
2017-04-07T14:04:44.732Z,999.11
2017-04-07T14:05:55.058Z,999.02
2017-04-07T14:07:05.419Z,998.98
2017-04-07T14:08:15.766Z,998.97
2017-04-07T14:09:25.816Z,999.05
2017-04-07T14:10:36.164Z,999.08
2017-04-07T14:11:46.505Z,998.98
2017-04-07T14:12:56.530Z,998.98
2017-04-07T14:14:06.874Z,998.98
2017-04-07T14:15:17.240Z,999.01
2017-04-07T14:16:27.625Z,999.07
2017-04-07T14:17:37.981Z,999.04
2017-04-07T14:18:48.334Z,998.99
2017-04-07T14:19:58.696Z,999.05
2017-04-07T14:21:09.043Z,999.09
2017-04-07T14:22:19.101Z,999.01
2017-04-07T14:23:29.456Z,998.97
2017-04-07T14:24:39.827Z,999.01
2017-04-07T14:25:50.167Z,999.02
2017-04-07T14:27:00.504Z,998.95
2017-04-07T14:28:10.551Z,998.97
2017-04-07T14:29:20.887Z,999
2017-04-07T14:30:31.225Z,999.02
2017-04-07T14:31:41.259Z,999.06
2017-04-07T14:32:51.613Z,999.06
2017-04-07T14:34:02.010Z,999.02
2017-04-07T14:35:12.360Z,999.01
2017-04-07T14:36:22.696Z,999.06
2017-04-07T14:37:33.061Z,999.07
2017-04-07T14:38:43.096Z,998.99
2017-04-07T14:39:53.180Z,999.01
2017-04-07T14:41:03.521Z,999
2017-04-07T14:42:13.573Z,999.05
2017-04-07T14:43:23.920Z,999.05
2017-04-07T14:44:34.267Z,999.03
2017-04-07T14:45:43.999Z,999
2017-04-07T14:46:54.323Z,999.09
2017-04-07T14:48:04.653Z,999.11
2017-04-07T14:49:14.984Z,999.09
2017-04-07T14:50:25.350Z,999.11
2017-04-07T14:51:35.699Z,999.18
2017-04-07T14:52:45.455Z,999.11
2017-04-07T14:53:55.517Z,999.17
2017-04-07T14:55:05.593Z,999.2
2017-04-07T14:56:15.923Z,999.14
2017-04-07T14:57:25.951Z,999.19